Accueil
METAR-TAF:

METAR-TAF

Aéroports :

Tahiti, Polynésie française

Aéroport international de Tahiti Fa'a'ā

latitude: 17-33S, longitude: 149-37W, altitude: 2 m

Observation

Le bulletin a été fait il y a 11 minutes, à 22:30 UTC
Vent 5 kt de ouest
Température 29°C
Humidité 62%
Pression 1015 hPa
Visibilité 10 km ou plus
Quelques nuages à une hauteur de 2300 ft
Nuages épars à une hauteur de 5300 ft

METAR: NTAA 232230Z 27005KT 9999 FEW023 SCT053 29/21 Q1015 NOSIG

Heure: 12:41 (22:41 UTC)

Prévision

Le bulletin a été fait il y a 5 heures et 41 minutes, à 17:00 UTC
Prévision valable du 23 à 18 UTC au 24 à 24 UTC
Vent 5 kt de direction variable
Visibilité 10 km ou plus
Quelques nuages à une hauteur de 2300 ft
Nuages épars à une hauteur de 5000 ft

TAF: NTAA 231700Z 2318/2424 VRB05KT 9999 FEW023 SCT050

Observations et prévisions météorologiques de plus de 4000 aéroports (messages METAR et TAF).

Les stations disponibles sont représentées par des disques jaunes et rouges sur la carte.

Passer la souris dessus pour voir le nom de la station.

Cliquer dessus pour voir les observations et prévisions météorologiques.

Pour changer de carte: cliquez sur les boutons verts avec une croix noire pour zoomer, sur le bouton vert avec un tiret pour effectuer un zoom arrière, ou sur les flèches vertes pour les cartes adjacentes.


METAR-TAF: